Time;durP1;ratioP1;P1;durP2;ratioP2;P2;SDS_P1;SDS_P2;PMS_P1;PMS_P2;Temp;Humidity;BMP_temperature;BMP_pressure;BME280_temperature;BME280_humidity;BME280_pressure;Samples;Min_cycle;Max_cycle;Signal;HPM_P1;HPM_P2
2021/03/29 00:00:27;;;;;;;48.63;30.52;;;7.10;71.00;;;;;;5029273;28;20056;-57
2021/03/29 00:02:54;;;;;;;46.28;30.40;;;7.10;71.00;;;;;;5016269;28;20079;-58
2021/03/29 00:05:22;;;;;;;49.08;30.67;;;7.10;71.10;;;;;;5025521;28;20049;-56
2021/03/29 00:08:17;;;;;;;50.55;31.73;;;7.00;71.30;;;;;;5023963;28;20029;-56
2021/03/29 00:10:44;;;;;;;53.40;31.33;;;7.00;71.40;;;;;;5016339;28;20459;-55
2021/03/29 00:13:12;;;;;;;47.13;29.95;;;7.00;71.50;;;;;;5020257;28;20029;-58
2021/03/29 00:15:45;;;;;;;47.90;31.17;;;7.00;71.50;;;;;;5023731;28;20025;-58
2021/03/29 00:18:11;;;;;;;49.30;32.88;;;7.00;71.60;;;;;;5027085;28;20028;-57
2021/03/29 00:20:40;;;;;;;48.38;31.40;;;7.00;71.60;;;;;;5016556;28;20120;-57
2021/03/29 00:23:07;;;;;;;48.30;31.17;;;7.00;71.80;;;;;;5020484;28;20030;-56
2021/03/29 00:25:34;;;;;;;47.83;30.77;;;7.00;71.90;;;;;;5030573;28;20462;-58
2021/03/29 00:28:00;;;;;;;44.28;31.27;;;7.00;72.00;;;;;;5025198;28;20032;-56
2021/03/29 00:30:32;;;;;;;51.03;31.95;;;7.00;72.10;;;;;;5016845;28;20026;-57
2021/03/29 00:32:59;;;;;;;51.47;31.83;;;7.10;72.30;;;;;;5011899;28;20029;-56
2021/03/29 00:35:26;;;;;;;46.50;30.98;;;7.00;72.30;;;;;;5013102;28;20072;-57
2021/03/29 00:37:55;;;;;;;55.38;33.17;;;7.00;72.40;;;;;;5024493;28;20048;-57
2021/03/29 00:40:23;;;;;;;48.67;32.22;;;7.00;72.50;;;;;;5017755;28;20674;-57
2021/03/29 00:43:00;;;;;;;54.70;33.30;;;7.00;72.70;;;;;;5017140;28;20080;-57
2021/03/29 00:45:27;;;;;;;57.08;33.58;;;7.10;73.00;;;;;;5021090;28;20026;-57
2021/03/29 00:47:54;;;;;;;45.17;30.30;;;7.00;72.90;;;;;;5021350;28;20081;-57
2021/03/29 00:50:29;;;;;;;49.08;30.95;;;7.10;73.00;;;;;;5023026;28;20070;-57
2021/03/29 00:52:56;;;;;;;48.13;32.22;;;7.10;73.00;;;;;;5011005;28;20041;-56
2021/03/29 00:55:23;;;;;;;44.53;30.02;;;7.10;73.00;;;;;;5013644;28;20453;-57
2021/03/29 00:57:50;;;;;;;52.92;32.08;;;7.10;73.10;;;;;;5016168;28;20022;-57
2021/03/29 01:00:24;;;;;;;43.05;27.98;;;7.10;73.10;;;;;;5022035;28;20030;-57
2021/03/29 01:02:50;;;;;;;45.53;30.70;;;7.10;73.10;;;;;;5020532;28;20044;-57
2021/03/29 01:05:19;;;;;;;44.92;29.92;;;7.10;73.30;;;;;;5024811;28;20030;-58
2021/03/29 01:07:47;;;;;;;43.58;29.38;;;7.10;73.40;;;;;;5023226;28;20032;-58
2021/03/29 01:10:14;;;;;;;44.17;28.92;;;7.10;73.40;;;;;;5018240;28;20048;-54
2021/03/29 01:12:41;;;;;;;42.47;27.67;;;7.10;73.50;;;;;;5019241;28;20034;-53
2021/03/29 01:15:09;;;;;;;42.47;29.00;;;7.10;73.60;;;;;;5027253;28;20053;-58
2021/03/29 01:17:39;;;;;;;40.80;28.30;;;7.00;73.60;;;;;;5015680;28;20026;-57
2021/03/29 01:20:04;;;;;;;47.85;30.15;;;7.00;73.90;;;;;;5029445;28;20014;-58
2021/03/29 01:22:40;;;;;;;44.20;28.00;;;7.00;74.10;;;;;;5018455;28;20363;-56
2021/03/29 01:25:23;;;;;;;39.33;26.70;;;6.90;74.20;;;;;;5006696;28;20362;-56
2021/03/29 01:27:57;;;;;;;49.95;28.98;;;6.90;74.30;;;;;;5025227;28;20100;-58
2021/03/29 01:30:23;;;;;;;45.63;29.52;;;6.90;74.70;;;;;;5031456;28;20104;-58
2021/03/29 01:32:51;;;;;;;43.28;28.85;;;6.90;74.80;;;;;;5018994;28;20030;-55
2021/03/29 01:35:39;;;;;;;41.55;28.90;;;7.00;75.00;;;;;;5023043;28;20021;-55
2021/03/29 01:38:06;;;;;;;37.97;25.52;;;7.00;75.50;;;;;;5022696;28;20022;-58
2021/03/29 01:40:37;;;;;;;44.60;27.75;;;7.00;74.70;;;;;;5032262;28;20018;-56
2021/03/29 01:43:06;;;;;;;43.17;26.13;;;7.00;74.60;;;;;;5029850;28;20028;-57
2021/03/29 01:45:33;;;;;;;40.60;27.50;;;7.00;74.70;;;;;;5027086;28;20029;-57
2021/03/29 01:47:59;;;;;;;39.08;26.23;;;7.00;74.80;;;;;;5028089;28;20072;-58
2021/03/29 01:50:28;;;;;;;40.80;27.13;;;7.00;74.90;;;;;;5019220;28;20046;-58
2021/03/29 01:52:55;;;;;;;42.60;25.00;;;6.90;74.90;;;;;;5019255;28;20105;-57
2021/03/29 01:55:22;;;;;;;38.20;25.40;;;6.90;75.00;;;;;;5028611;28;20026;-57
2021/03/29 01:57:47;;;;;;;38.05;25.45;;;6.90;75.10;;;;;;5026379;28;20056;-57
2021/03/29 02:00:20;;;;;;;40.00;28.80;;;6.90;75.20;;;;;;5020949;28;20026;-57
2021/03/29 02:02:47;;;;;;;37.90;25.88;;;6.90;75.40;;;;;;5027037;28;20461;-57
2021/03/29 02:05:14;;;;;;;35.80;24.95;;;6.80;75.50;;;;;;5029237;28;20087;-56
2021/03/29 02:07:42;;;;;;;39.40;27.10;;;6.80;75.70;;;;;;5024235;28;20362;-57
2021/03/29 02:10:13;;;;;;;36.75;26.30;;;6.80;75.60;;;;;;5019037;28;20037;-57
2021/03/29 02:12:40;;;;;;;35.95;24.05;;;6.80;75.80;;;;;;5031428;28;20082;-57
2021/03/29 02:15:14;;;;;;;43.17;27.20;;;6.80;75.60;;;;;;5015082;28;20112;-57
2021/03/29 02:17:42;;;;;;;34.95;24.42;;;6.80;75.60;;;;;;5015242;28;20052;-58
2021/03/29 02:20:16;;;;;;;33.28;23.45;;;6.90;75.50;;;;;;5025665;28;20022;-58
2021/03/29 02:22:47;;;;;;;38.42;25.13;;;6.90;75.40;;;;;;5031539;28;20029;-56
2021/03/29 02:25:14;;;;;;;38.30;24.35;;;6.90;75.60;;;;;;5016130;28;20423;-55
2021/03/29 02:27:41;;;;;;;38.53;26.17;;;6.90;75.50;;;;;;5023794;28;20033;-56
2021/03/29 02:30:12;;;;;;;33.65;23.42;;;6.90;75.60;;;;;;5031499;28;20052;-57
2021/03/29 02:32:46;;;;;;;41.90;27.00;;;7.00;75.80;;;;;;5018559;28;20034;-56
2021/03/29 02:35:13;;;;;;;35.42;24.52;;;7.00;75.70;;;;;;5022530;28;20469;-57
2021/03/29 02:37:42;;;;;;;41.40;27.08;;;7.00;75.70;;;;;;5025026;28;20032;-58
2021/03/29 02:40:09;;;;;;;39.53;26.48;;;7.10;75.70;;;;;;5028093;28;20100;-58
2021/03/29 02:42:36;;;;;;;38.10;27.15;;;7.10;75.90;;;;;;5018129;28;20513;-58
2021/03/29 02:45:08;;;;;;;39.00;25.30;;;7.20;76.20;;;;;;5030178;28;20029;-58
2021/03/29 02:47:35;;;;;;;38.97;26.00;;;7.20;76.30;;;;;;5023627;28;20373;-57
2021/03/29 02:50:06;;;;;;;42.97;27.33;;;7.30;76.30;;;;;;5029319;28;20055;-56
2021/03/29 02:52:33;;;;;;;39.43;27.17;;;7.40;76.20;;;;;;5029135;28;20029;-58
2021/03/29 02:54:58;;;;;;;42.88;27.30;;;7.50;76.10;;;;;;5030353;28;20310;-56
2021/03/29 02:57:24;;;;;;;38.97;27.83;;;7.50;76.50;;;;;;5022042;28;20461;-57
2021/03/29 02:59:51;;;;;;;36.20;24.38;;;7.60;76.10;;;;;;5021980;28;20034;-58
2021/03/29 03:02:18;;;;;;;33.28;24.52;;;7.60;76.10;;;;;;5029469;28;20052;-55
2021/03/29 03:04:44;;;;;;;32.28;23.08;;;7.60;76.00;;;;;;5017429;28;20034;-57
2021/03/29 03:07:10;;;;;;;35.70;23.70;;;7.70;75.80;;;;;;5028559;28;20412;-55
2021/03/29 03:09:36;;;;;;;33.28;23.85;;;7.70;75.70;;;;;;5023475;28;20034;-58
2021/03/29 03:12:03;;;;;;;30.85;21.95;;;7.70;75.50;;;;;;5032441;28;20034;-57
2021/03/29 03:14:30;;;;;;;33.95;22.67;;;7.70;75.50;;;;;;5017538;28;20025;-56
2021/03/29 03:16:56;;;;;;;32.13;22.10;;;7.70;75.40;;;;;;5009240;28;20025;-57
2021/03/29 03:19:22;;;;;;;35.22;23.52;;;7.60;75.40;;;;;;5032967;28;20036;-57
2021/03/29 03:21:51;;;;;;;34.55;24.67;;;7.60;75.30;;;;;;5023364;28;20030;-57
2021/03/29 03:24:16;;;;;;;33.45;22.75;;;7.60;75.40;;;;;;5015198;28;20183;-57
2021/03/29 03:26:42;;;;;;;36.28;23.25;;;7.60;75.30;;;;;;5030296;28;20025;-56
2021/03/29 03:29:08;;;;;;;36.67;23.40;;;7.60;75.20;;;;;;5019379;28;20441;-57
2021/03/29 03:31:34;;;;;;;37.75;23.83;;;7.60;75.00;;;;;;5024976;28;20458;-57
2021/03/29 03:34:00;;;;;;;31.02;21.20;;;7.60;74.90;;;;;;5014882;28;20029;-58
2021/03/29 03:36:27;;;;;;;30.90;20.98;;;7.60;75.00;;;;;;5029287;28;20033;-57
2021/03/29 03:38:54;;;;;;;34.80;22.48;;;7.60;74.80;;;;;;5016981;28;20464;-55
2021/03/29 03:41:32;;;;;;;30.00;20.38;;;7.60;74.80;;;;;;5026735;28;20022;-57
2021/03/29 03:44:00;;;;;;;29.33;21.88;;;7.60;74.70;;;;;;5026111;28;20056;-57
2021/03/29 03:46:30;;;;;;;30.75;21.40;;;7.60;74.80;;;;;;5017512;28;20492;-57
2021/03/29 03:49:03;;;;;;;28.98;19.98;;;7.60;74.80;;;;;;5001524;28;20444;-56
2021/03/29 03:51:29;;;;;;;28.23;20.13;;;7.60;74.70;;;;;;5025680;28;20029;-58
2021/03/29 03:53:55;;;;;;;29.30;20.58;;;7.60;74.80;;;;;;5021828;28;20014;-54
2021/03/29 03:56:22;;;;;;;30.10;19.58;;;7.70;74.60;;;;;;5021523;28;20446;-56
2021/03/29 03:58:48;;;;;;;26.67;18.63;;;7.60;74.40;;;;;;5026681;28;20026;-58
2021/03/29 04:01:14;;;;;;;26.98;18.77;;;7.70;74.50;;;;;;5027484;28;20079;-57
2021/03/29 04:03:39;;;;;;;26.38;18.77;;;7.60;74.60;;;;;;5023115;28;20107;-54
2021/03/29 04:06:05;;;;;;;26.67;18.13;;;7.60;74.80;;;;;;5019106;28;20468;-58
2021/03/29 04:08:31;;;;;;;27.30;18.95;;;7.70;74.70;;;;;;5013753;28;20109;-58
2021/03/29 04:10:59;;;;;;;25.73;18.27;;;7.70;74.70;;;;;;5029032;28;20037;-56
2021/03/29 04:13:28;;;;;;;27.85;19.27;;;7.70;74.80;;;;;;5014356;28;20049;-56
2021/03/29 04:15:59;;;;;;;27.42;18.88;;;7.70;74.90;;;;;;5024599;28;20038;-57
2021/03/29 04:18:25;;;;;;;25.73;17.27;;;7.80;74.60;;;;;;5017352;28;20046;-58
2021/03/29 04:20:52;;;;;;;26.45;18.27;;;7.80;74.40;;;;;;5029307;28;20022;-56
2021/03/29 04:23:21;;;;;;;26.55;17.35;;;7.90;74.20;;;;;;5019607;28;20025;-57
2021/03/29 04:25:47;;;;;;;22.33;16.50;;;7.90;73.90;;;;;;5025340;28;20029;-56
2021/03/29 04:28:13;;;;;;;25.13;17.50;;;7.90;73.70;;;;;;5018377;28;20037;-56
2021/03/29 04:30:39;;;;;;;22.33;16.67;;;8.00;73.60;;;;;;5029167;28;20025;-57
2021/03/29 04:33:06;;;;;;;21.40;16.42;;;8.00;73.40;;;;;;5017153;28;20377;-57
2021/03/29 04:35:32;;;;;;;24.38;16.63;;;8.10;73.20;;;;;;5021649;28;20017;-58
2021/03/29 04:37:58;;;;;;;23.35;17.08;;;8.20;73.10;;;;;;5020789;28;20425;-55
2021/03/29 04:40:26;;;;;;;24.42;16.70;;;8.20;73.00;;;;;;5028740;28;20411;-58
2021/03/29 04:42:52;;;;;;;24.52;17.23;;;8.30;73.00;;;;;;5016200;28;20026;-57
2021/03/29 04:45:19;;;;;;;28.63;16.17;;;8.40;72.90;;;;;;5026017;28;20029;-58
2021/03/29 04:47:45;;;;;;;25.20;16.27;;;8.50;73.10;;;;;;5023508;28;20025;-56
2021/03/29 04:50:12;;;;;;;24.17;17.50;;;8.60;73.20;;;;;;5016117;28;20133;-54
2021/03/29 04:52:38;;;;;;;22.98;16.63;;;8.70;73.40;;;;;;5032236;28;20493;-55
2021/03/29 04:55:05;;;;;;;25.90;15.80;;;8.90;73.40;;;;;;5021460;28;20105;-56
2021/03/29 04:57:31;;;;;;;21.02;16.08;;;9.10;72.90;;;;;;5018798;28;20026;-57
2021/03/29 04:59:56;;;;;;;21.30;14.55;;;9.20;72.60;;;;;;5028539;28;20030;-55
2021/03/29 05:02:22;;;;;;;23.52;15.25;;;9.40;72.50;;;;;;5021160;28;20064;-58
2021/03/29 05:04:48;;;;;;;17.00;12.80;;;9.60;71.30;;;;;;5032849;28;20449;-57
2021/03/29 05:07:14;;;;;;;18.65;14.57;;;9.70;70.20;;;;;;5017296;28;20432;-54
2021/03/29 05:09:40;;;;;;;20.88;14.38;;;9.80;69.50;;;;;;5017210;28;20391;-57
2021/03/29 05:12:19;;;;;;;23.15;15.45;;;9.90;69.00;;;;;;5029627;28;20040;-57
2021/03/29 05:14:44;;;;;;;18.45;13.57;;;10.00;68.80;;;;;;5017594;28;20378;-56
2021/03/29 05:17:11;;;;;;;22.50;16.38;;;10.20;68.80;;;;;;5013904;28;20034;-58
2021/03/29 05:19:37;;;;;;;19.23;14.90;;;10.50;68.30;;;;;;5015114;28;20385;-58
2021/03/29 05:22:05;;;;;;;22.02;14.45;;;10.80;67.50;;;;;;5014716;28;20032;-56
2021/03/29 05:24:31;;;;;;;17.55;13.70;;;11.00;66.80;;;;;;5018873;28;20026;-57
2021/03/29 05:26:57;;;;;;;18.98;13.88;;;11.20;65.70;;;;;;5032022;28;20036;-58
2021/03/29 05:29:40;;;;;;;18.58;13.30;;;11.40;65.10;;;;;;5019428;28;20034;-57
2021/03/29 05:32:14;;;;;;;20.80;14.45;;;11.40;64.60;;;;;;5024791;28;20088;-57
2021/03/29 05:34:41;;;;;;;17.02;13.13;;;11.40;64.30;;;;;;5017083;28;20492;-56
2021/03/29 05:37:06;;;;;;;20.15;14.02;;;11.50;64.30;;;;;;5016677;28;20112;-56
2021/03/29 05:39:32;;;;;;;18.50;13.20;;;11.50;63.70;;;;;;5014951;28;20109;-58
2021/03/29 05:41:58;;;;;;;17.40;12.95;;;11.60;63.30;;;;;;5014800;28;20029;-57
2021/03/29 05:44:25;;;;;;;18.90;13.23;;;11.70;62.80;;;;;;5018629;28;20434;-58
2021/03/29 05:46:51;;;;;;;21.42;14.43;;;11.70;62.30;;;;;;5006309;28;20105;-57
2021/03/29 05:49:17;;;;;;;22.05;14.27;;;11.80;62.30;;;;;;5017250;28;20075;-57
2021/03/29 05:51:42;;;;;;;20.20;14.02;;;11.90;62.00;;;;;;5014689;28;20083;-58
2021/03/29 05:54:09;;;;;;;21.90;13.68;;;11.90;61.70;;;;;;5014566;28;20081;-58
2021/03/29 05:56:36;;;;;;;16.42;12.73;;;12.00;61.50;;;;;;5011369;28;20034;-59
2021/03/29 06:01:48;;;;;;;15.85;12.10;;;12.00;60.90;;;;;;5006656;28;20538;-54
2021/03/29 06:04:16;;;;;;;17.52;12.68;;;12.10;60.30;;;;;;5011105;28;20453;-58
2021/03/29 06:06:43;;;;;;;19.02;13.50;;;12.20;59.70;;;;;;5015408;28;20138;-58
2021/03/29 06:09:09;;;;;;;18.73;12.73;;;12.20;58.90;;;;;;5013224;28;20022;-58
2021/03/29 06:11:38;;;;;;;19.75;13.48;;;12.20;58.60;;;;;;5008667;28;20069;-57
2021/03/29 06:14:17;;;;;;;22.15;15.13;;;12.10;58.50;;;;;;5013193;28;20022;-58
2021/03/29 06:17:04;;;;;;;21.05;14.15;;;11.80;58.40;;;;;;5007858;28;20808;-57
2021/03/29 06:19:48;;;;;;;18.80;13.65;;;11.60;58.90;;;;;;5002914;28;20030;-58
2021/03/29 06:22:27;;;;;;;19.17;14.35;;;11.30;59.20;;;;;;5007116;28;20030;-57
2021/03/29 06:25:02;;;;;;;21.67;15.85;;;11.10;60.20;;;;;;5001092;28;20030;-58
2021/03/29 06:27:38;;;;;;;22.10;15.27;;;10.90;60.30;;;;;;5006017;28;20555;-58
2021/03/29 06:30:30;;;;;;;22.63;15.00;;;10.80;60.70;;;;;;5010614;28;20032;-57
2021/03/29 06:33:07;;;;;;;18.08;13.38;;;10.70;60.80;;;;;;5012170;28;20048;-58
2021/03/29 06:35:37;;;;;;;19.45;13.52;;;10.70;61.20;;;;;;5007848;28;20117;-58
2021/03/29 06:38:07;;;;;;;21.25;13.82;;;10.60;61.30;;;;;;5010977;28;20048;-57
2021/03/29 06:40:34;;;;;;;19.27;13.73;;;10.60;61.20;;;;;;5003918;28;20029;-58
2021/03/29 06:42:59;;;;;;;20.92;15.52;;;10.50;61.60;;;;;;5008978;28;20096;-58
2021/03/29 06:45:27;;;;;;;22.55;14.70;;;10.50;61.70;;;;;;5007926;28;20033;-56
2021/03/29 06:47:52;;;;;;;20.98;14.43;;;10.50;61.80;;;;;;5008580;28;20029;-58
2021/03/29 06:50:24;;;;;;;18.90;14.13;;;10.50;62.00;;;;;;5004635;28;20049;-58
2021/03/29 06:52:49;;;;;;;;;;;10.50;62.20;;;;;;5006947;28;20053;-57
2021/03/29 06:55:23;;;;;;;20.52;13.95;;;10.40;62.00;;;;;;5003966;28;19913;-58
2021/03/29 06:58:05;;;;;;;21.38;14.88;;;10.40;62.30;;;;;;5000816;28;20046;-57
2021/03/29 07:00:34;;;;;;;21.15;13.80;;;10.50;62.30;;;;;;5002990;28;20385;-58
2021/03/29 07:03:03;;;;;;;20.35;14.40;;;10.50;62.50;;;;;;5002645;28;20044;-56
2021/03/29 07:05:30;;;;;;;21.60;14.23;;;10.60;62.20;;;;;;5005261;28;20034;-58
2021/03/29 07:08:01;;;;;;;20.33;14.48;;;10.60;62.20;;;;;;5006067;28;20022;-57
2021/03/29 07:10:28;;;;;;;20.00;13.13;;;10.60;62.00;;;;;;5006000;28;20657;-58
2021/03/29 07:12:55;;;;;;;20.67;13.75;;;10.60;62.00;;;;;;5003196;28;20046;-58
2021/03/29 07:15:22;;;;;;;20.83;15.38;;;10.60;61.90;;;;;;5006243;28;20108;-57
2021/03/29 07:17:49;;;;;;;21.83;15.00;;;10.70;61.90;;;;;;5009112;28;20059;-58
2021/03/29 07:20:21;;;;;;;20.75;15.35;;;10.70;62.00;;;;;;5004074;28;20038;-58
2021/03/29 07:22:48;;;;;;;22.88;15.10;;;10.70;61.70;;;;;;5007479;28;20083;-59
2021/03/29 07:25:15;;;;;;;22.08;15.93;;;10.70;61.90;;;;;;5005224;28;20143;-57
2021/03/29 07:27:44;;;;;;;22.30;16.33;;;10.70;61.90;;;;;;5003583;28;20037;-57
2021/03/29 07:30:13;;;;;;;22.95;15.55;;;10.80;62.00;;;;;;5006434;28;20033;-56
2021/03/29 07:32:39;;;;;;;24.88;16.08;;;10.80;61.80;;;;;;5015781;28;20025;-57
2021/03/29 07:35:08;;;;;;;21.23;15.27;;;10.90;61.80;;;;;;5005258;28;20026;-59
2021/03/29 07:37:44;;;;;;;25.17;16.67;;;10.90;61.60;;;;;;5000726;28;20079;-58
2021/03/29 07:40:15;;;;;;;20.50;15.32;;;10.90;61.50;;;;;;5004557;28;20536;-58
2021/03/29 07:42:41;;;;;;;;;;;10.90;62.20;;;;;;4999422;28;20026;-56
2021/03/29 07:45:19;;;;;;;21.42;13.80;;;10.80;61.40;;;;;;5002568;28;19971;-58
2021/03/29 07:47:48;;;;;;;21.80;15.52;;;10.80;61.60;;;;;;4998990;28;20047;-57
2021/03/29 07:50:38;;;;;;;24.58;17.25;;;10.80;61.90;;;;;;5000209;28;20057;-59
2021/03/29 07:53:19;;;;;;;22.80;15.93;;;10.80;61.90;;;;;;4997464;28;20120;-58
2021/03/29 07:55:47;;;;;;;20.95;14.95;;;10.80;61.90;;;;;;4994208;28;20444;-57
2021/03/29 07:58:15;;;;;;;20.73;14.80;;;10.80;61.80;;;;;;5000023;28;20034;-56
2021/03/29 08:00:43;;;;;;;23.20;15.88;;;10.80;61.70;;;;;;4998521;28;20037;-57
2021/03/29 08:03:11;;;;;;;25.73;18.25;;;10.80;61.70;;;;;;4995913;28;20044;-58
2021/03/29 08:05:42;;;;;;;23.00;17.67;;;10.80;61.80;;;;;;4999738;28;20026;-58
2021/03/29 08:08:35;;;;;;;21.98;16.80;;;10.80;61.70;;;;;;4996300;28;20064;-58
2021/03/29 08:11:11;;;;;;;25.15;16.08;;;10.90;61.70;;;;;;4996780;28;20026;-59
2021/03/29 08:13:39;;;;;;;26.17;17.13;;;10.90;61.50;;;;;;5002142;28;20034;-58
2021/03/29 08:16:08;;;;;;;27.42;17.38;;;11.00;61.50;;;;;;5001426;28;20037;-59
2021/03/29 08:19:07;;;;;;;21.45;16.45;;;11.10;61.60;;;;;;5002095;28;20026;-58
2021/03/29 08:21:58;;;;;;;22.58;16.48;;;11.20;61.20;;;;;;4998332;28;20029;-57
2021/03/29 08:24:34;;;;;;;24.23;16.98;;;11.30;60.70;;;;;;5000811;28;20044;-57
2021/03/29 08:27:00;;;;;;;22.15;16.85;;;11.30;60.40;;;;;;4997703;28;20033;-57
2021/03/29 08:29:30;;;;;;;26.45;17.90;;;11.30;60.50;;;;;;5003947;28;21156;-58
2021/03/29 08:32:30;;;;;;;25.05;17.55;;;11.30;60.20;;;;;;4995296;28;20499;-58
2021/03/29 08:34:59;;;;;;;23.48;16.85;;;11.30;60.20;;;;;;4996439;28;20049;-58
2021/03/29 08:37:27;;;;;;;24.38;16.85;;;11.30;60.20;;;;;;5000461;28;20045;-57
2021/03/29 08:39:54;;;;;;;23.58;17.25;;;11.40;60.40;;;;;;4998627;28;20030;-58
2021/03/29 08:42:41;;;;;;;25.27;17.45;;;11.40;60.90;;;;;;4991669;28;20034;-58
2021/03/29 08:45:10;;;;;;;25.20;18.20;;;11.50;60.00;;;;;;4996360;28;20041;-56
2021/03/29 08:47:38;;;;;;;24.63;17.15;;;11.50;60.20;;;;;;5002946;28;20034;-55
2021/03/29 08:50:10;;;;;;;23.38;17.15;;;11.50;60.00;;;;;;5001326;28;20077;-56
2021/03/29 08:52:40;;;;;;;24.10;17.13;;;11.50;60.00;;;;;;4994479;28;20036;-57
2021/03/29 08:55:07;;;;;;;24.27;17.25;;;11.50;60.00;;;;;;4996745;28;20096;-58
2021/03/29 08:57:33;;;;;;;21.27;16.60;;;11.60;60.10;;;;;;4998436;28;20068;-58
2021/03/29 09:00:10;;;;;;;27.00;17.15;;;11.60;60.00;;;;;;4994764;28;20040;-58
2021/03/29 09:02:35;;;;;;;23.70;16.10;;;11.60;60.00;;;;;;4995539;28;20049;-58
2021/03/29 09:05:02;;;;;;;25.80;17.58;;;11.70;60.00;;;;;;4995479;28;20037;-56
2021/03/29 09:07:36;;;;;;;22.60;17.30;;;11.70;59.70;;;;;;5002202;28;20052;-58
2021/03/29 09:10:12;;;;;;;23.02;17.67;;;11.70;60.20;;;;;;4999835;28;20033;-58
2021/03/29 09:12:37;;;;;;;24.35;17.73;;;11.70;59.80;;;;;;5001825;28;20049;-58
2021/03/29 09:15:11;;;;;;;23.88;17.25;;;11.70;60.00;;;;;;4995520;28;20030;-58
2021/03/29 09:17:36;;;;;;;19.25;15.18;;;11.70;59.90;;;;;;4990908;28;20116;-58
2021/03/29 09:20:03;;;;;;;25.67;17.00;;;11.80;60.00;;;;;;4999440;28;20056;-58
2021/03/29 09:22:37;;;;;;;24.33;17.52;;;11.80;59.90;;;;;;5001554;28;20369;-58
2021/03/29 09:25:05;;;;;;;22.73;17.25;;;11.80;60.00;;;;;;4999538;28;20072;-58
2021/03/29 09:27:37;;;;;;;20.38;15.93;;;11.90;59.70;;;;;;5000766;28;20037;-58
2021/03/29 09:30:07;;;;;;;24.98;17.05;;;11.90;60.00;;;;;;5004102;28;20044;-57
2021/03/29 09:32:34;;;;;;;20.80;15.68;;;12.00;59.90;;;;;;5001451;28;20034;-58
2021/03/29 09:35:00;;;;;;;22.95;16.77;;;12.00;60.00;;;;;;4998079;28;20037;-58
2021/03/29 09:37:28;;;;;;;20.42;14.50;;;12.10;59.90;;;;;;5001263;28;20084;-56
2021/03/29 09:40:06;;;;;;;21.35;15.77;;;12.10;59.70;;;;;;5001699;28;20041;-58
2021/03/29 09:42:42;;;;;;;18.83;14.43;;;12.20;59.60;;;;;;5004237;28;20128;-57
2021/03/29 09:45:31;;;;;;;23.02;16.20;;;12.20;59.60;;;;;;4990141;28;20033;-56
2021/03/29 09:48:03;;;;;;;18.00;14.32;;;12.30;59.40;;;;;;4996109;28;20144;-57
2021/03/29 09:50:31;;;;;;;20.83;14.38;;;12.30;59.20;;;;;;5003103;28;20053;-57
2021/03/29 09:53:10;;;;;;;19.77;14.43;;;12.40;59.00;;;;;;4996106;28;20068;-58
2021/03/29 09:55:50;;;;;;;20.15;13.40;;;12.50;59.10;;;;;;5002878;28;20114;-58
2021/03/29 09:58:38;;;;;;;17.92;12.18;;;12.50;58.70;;;;;;4999537;28;20260;-58
2021/03/29 10:01:16;;;;;;;14.75;11.95;;;12.50;58.40;;;;;;4998691;28;20037;-58
2021/03/29 10:03:51;;;;;;;18.42;13.07;;;12.50;58.10;;;;;;5004141;28;20842;-58
2021/03/29 10:06:17;;;;;;;14.65;11.55;;;12.40;57.80;;;;;;4999816;28;20034;-57
2021/03/29 10:08:57;;;;;;;17.38;11.77;;;12.40;57.80;;;;;;4996648;28;20013;-58
2021/03/29 10:11:24;;;;;;;15.68;12.05;;;12.40;57.70;;;;;;5007681;28;20030;-57
2021/03/29 10:13:49;;;;;;;13.63;10.75;;;12.40;57.70;;;;;;5012464;28;20037;-57
2021/03/29 10:16:19;;;;;;;16.73;11.90;;;12.40;57.40;;;;;;5014514;28;20044;-58
2021/03/29 10:18:45;;;;;;;14.75;10.45;;;12.40;57.30;;;;;;5011391;28;20018;-55
2021/03/29 10:21:12;;;;;;;15.45;10.93;;;12.40;57.10;;;;;;5010333;28;20657;-58
2021/03/29 10:23:41;;;;;;;15.93;11.68;;;12.40;57.30;;;;;;5012361;28;20045;-58
2021/03/29 10:26:20;;;;;;;15.00;11.80;;;12.40;57.10;;;;;;5012637;28;20037;-58
2021/03/29 10:29:03;;;;;;;15.68;11.25;;;12.40;57.30;;;;;;5014684;28;20036;-57
2021/03/29 10:31:30;;;;;;;17.08;12.38;;;12.50;57.30;;;;;;5009375;28;20030;-58
2021/03/29 10:33:57;;;;;;;16.10;12.05;;;12.50;57.20;;;;;;5006483;28;20096;-59
2021/03/29 10:36:24;;;;;;;16.85;13.05;;;12.50;57.10;;;;;;5008012;28;20584;-57
2021/03/29 10:38:51;;;;;;;14.43;12.00;;;12.50;57.10;;;;;;5010496;28;20034;-57
2021/03/29 10:41:17;;;;;;;16.70;12.15;;;12.50;57.00;;;;;;5015250;28;20033;-57
2021/03/29 10:43:43;;;;;;;13.65;11.18;;;12.50;57.00;;;;;;5009784;28;20053;-56
2021/03/29 10:46:09;;;;;;;18.08;11.10;;;12.50;57.10;;;;;;5008559;28;20033;-58
2021/03/29 10:48:35;;;;;;;13.75;10.98;;;12.50;56.90;;;;;;5000812;28;20022;-58
2021/03/29 10:51:02;;;;;;;13.52;10.70;;;12.50;56.70;;;;;;5001622;28;20128;-58
2021/03/29 10:53:28;;;;;;;12.65;9.60;;;12.50;56.60;;;;;;5002085;28;20057;-58
2021/03/29 10:55:54;;;;;;;12.05;9.38;;;12.50;56.60;;;;;;5005183;28;20439;-58
2021/03/29 10:58:19;;;;;;;13.68;9.13;;;12.50;56.50;;;;;;5013295;28;20060;-56
2021/03/29 11:00:45;;;;;;;12.50;8.73;;;12.50;56.40;;;;;;5002057;28;20076;-58
2021/03/29 11:03:11;;;;;;;10.70;8.90;;;12.60;56.30;;;;;;5001971;28;20030;-57
2021/03/29 11:05:37;;;;;;;9.57;7.35;;;12.60;56.30;;;;;;5005332;28;20048;-56
2021/03/29 11:08:03;;;;;;;10.27;7.40;;;12.70;56.20;;;;;;5004614;28;20032;-53
2021/03/29 11:10:29;;;;;;;10.70;7.22;;;12.70;55.80;;;;;;5010214;28;20052;-57
2021/03/29 11:12:55;;;;;;;13.60;9.35;;;12.70;55.60;;;;;;5008108;28;21754;-58
2021/03/29 11:15:20;;;;;;;11.25;8.55;;;12.80;55.70;;;;;;5000750;28;20030;-57
2021/03/29 11:17:46;;;;;;;11.10;7.88;;;12.80;55.70;;;;;;5001694;28;21027;-57
2021/03/29 11:20:12;;;;;;;10.00;7.53;;;12.90;55.60;;;;;;5004940;28;20112;-58
2021/03/29 11:22:38;;;;;;;9.13;7.68;;;12.90;55.10;;;;;;5002603;28;20044;-55
2021/03/29 11:25:05;;;;;;;9.57;6.30;;;12.90;54.70;;;;;;5011991;28;20037;-58
2021/03/29 11:27:31;;;;;;;9.13;6.47;;;13.00;54.70;;;;;;5003810;28;20044;-58
2021/03/29 11:29:57;;;;;;;9.55;6.50;;;13.00;54.30;;;;;;5010286;28;20037;-57
2021/03/29 11:32:25;;;;;;;8.07;6.65;;;13.00;54.10;;;;;;5008661;28;20056;-57
2021/03/29 11:34:51;;;;;;;8.05;6.40;;;13.00;54.00;;;;;;5005753;28;20034;-57
2021/03/29 11:37:16;;;;;;;10.40;7.38;;;13.10;53.90;;;;;;5000622;28;20029;-57
2021/03/29 11:39:42;;;;;;;10.88;7.47;;;13.10;53.80;;;;;;4999130;28;20397;-58
2021/03/29 11:42:08;;;;;;;9.15;7.65;;;13.10;53.70;;;;;;5004375;28;20064;-58
2021/03/29 11:44:33;;;;;;;10.48;8.50;;;13.10;53.60;;;;;;4999520;28;20048;-58
2021/03/29 11:46:59;;;;;;;10.55;7.38;;;13.20;53.60;;;;;;4987627;28;20664;-59
2021/03/29 11:49:25;;;;;;;11.48;8.05;;;13.20;53.40;;;;;;5001863;28;20054;-59
2021/03/29 11:51:50;;;;;;;8.30;6.82;;;13.30;53.30;;;;;;5000301;28;20069;-59
2021/03/29 11:54:16;;;;;;;12.60;8.25;;;13.30;53.00;;;;;;5001008;28;20034;-58
2021/03/29 11:56:42;;;;;;;8.95;7.05;;;13.30;53.00;;;;;;5004364;28;20452;-59
2021/03/29 11:59:08;;;;;;;10.63;6.93;;;13.30;52.80;;;;;;5002662;28;20033;-58
2021/03/29 12:04:40;;;;;;;9.13;6.28;;;13.30;52.00;;;;;;5003204;28;20153;-58
2021/03/29 12:07:38;;;;;;;10.55;6.88;;;13.30;52.00;;;;;;4999287;28;20045;-58
2021/03/29 12:12:42;;;;;;;10.23;7.03;;;13.40;51.70;;;;;;4997035;28;20037;-58
2021/03/29 12:15:13;;;;;;;8.98;6.78;;;13.40;51.40;;;;;;5001508;28;20069;-57
2021/03/29 12:17:41;;;;;;;;;;;13.40;51.10;;;;;;5003115;28;20461;-58
2021/03/29 12:20:08;;;;;;;8.23;5.93;;;13.40;51.40;;;;;;5004932;28;19917;-57
2021/03/29 12:22:36;;;;;;;8.85;6.70;;;13.50;51.60;;;;;;5003261;28;20574;-59
2021/03/29 12:25:02;;;;;;;9.02;7.05;;;13.50;51.30;;;;;;5004989;28;20038;-58
2021/03/29 12:27:29;;;;;;;8.68;6.25;;;13.50;51.20;;;;;;4999363;28;20398;-57
2021/03/29 12:29:55;;;;;;;6.82;5.70;;;13.50;51.00;;;;;;5002127;28;20407;-57
2021/03/29 12:32:22;;;;;;;8.63;5.65;;;13.50;50.80;;;;;;5005361;28;20116;-58
2021/03/29 12:34:50;;;;;;;8.90;5.88;;;13.50;50.20;;;;;;5005863;28;20057;-58
2021/03/29 12:37:17;;;;;;;8.80;5.82;;;13.50;50.10;;;;;;5001253;28;20029;-58
2021/03/29 12:39:56;;;;;;;6.40;5.30;;;13.60;49.80;;;;;;5001881;28;20033;-58
2021/03/29 12:42:24;;;;;;;6.80;5.40;;;13.60;49.80;;;;;;5011659;28;20029;-58
2021/03/29 12:44:50;;;;;;;8.00;5.72;;;13.70;49.50;;;;;;5004859;28;20029;-58
2021/03/29 12:47:17;;;;;;;6.15;4.93;;;13.70;48.90;;;;;;4999453;28;20041;-58
2021/03/29 12:49:43;;;;;;;6.68;4.53;;;13.80;48.60;;;;;;5006774;28;20049;-57
2021/03/29 12:52:09;;;;;;;7.68;5.25;;;13.80;48.60;;;;;;5004948;28;20034;-58